sensor_id;sensor_type;location;lat;lon;timestamp;P1;durP1;ratioP1;P2;durP2;ratioP2
7719;SDS011;3902;49.474;8.616;2023-04-15T00:00:14;3.40;;;2.40;;
7719;SDS011;3902;49.474;8.616;2023-04-15T00:02:40;4.23;;;2.43;;
7719;SDS011;3902;49.474;8.616;2023-04-15T00:05:05;3.30;;;2.23;;
7719;SDS011;3902;49.474;8.616;2023-04-15T00:07:31;5.10;;;2.90;;
7719;SDS011;3902;49.474;8.616;2023-04-15T00:09:57;4.20;;;2.30;;
7719;SDS011;3902;49.474;8.616;2023-04-15T00:12:23;2.23;;;2.03;;
7719;SDS011;3902;49.474;8.616;2023-04-15T00:14:50;3.33;;;2.43;;
7719;SDS011;3902;49.474;8.616;2023-04-15T00:17:16;3.10;;;2.70;;
7719;SDS011;3902;49.474;8.616;2023-04-15T00:19:42;4.70;;;2.60;;
7719;SDS011;3902;49.474;8.616;2023-04-15T00:22:09;4.03;;;2.53;;
7719;SDS011;3902;49.474;8.616;2023-04-15T00:24:35;4.30;;;2.70;;
7719;SDS011;3902;49.474;8.616;2023-04-15T00:27:00;3.93;;;2.50;;
7719;SDS011;3902;49.474;8.616;2023-04-15T00:29:26;3.70;;;2.87;;
7719;SDS011;3902;49.474;8.616;2023-04-15T00:31:52;3.37;;;2.23;;
7719;SDS011;3902;49.474;8.616;2023-04-15T00:34:18;3.87;;;2.40;;
7719;SDS011;3902;49.474;8.616;2023-04-15T00:36:43;2.97;;;2.30;;
7719;SDS011;3902;49.474;8.616;2023-04-15T00:39:08;3.20;;;2.50;;
7719;SDS011;3902;49.474;8.616;2023-04-15T00:41:34;3.20;;;2.63;;
7719;SDS011;3902;49.474;8.616;2023-04-15T00:44:03;3.40;;;2.70;;
7719;SDS011;3902;49.474;8.616;2023-04-15T00:46:32;3.90;;;2.70;;
7719;SDS011;3902;49.474;8.616;2023-04-15T00:48:59;3.13;;;2.30;;
7719;SDS011;3902;49.474;8.616;2023-04-15T00:51:26;4.47;;;2.70;;
7719;SDS011;3902;49.474;8.616;2023-04-15T00:53:52;3.23;;;2.47;;
7719;SDS011;3902;49.474;8.616;2023-04-15T00:56:18;2.87;;;2.47;;
7719;SDS011;3902;49.474;8.616;2023-04-15T00:58:48;3.87;;;2.60;;
7719;SDS011;3902;49.474;8.616;2023-04-15T01:01:14;3.40;;;2.43;;
7719;SDS011;3902;49.474;8.616;2023-04-15T01:03:40;6.47;;;2.70;;
7719;SDS011;3902;49.474;8.616;2023-04-15T01:06:06;4.20;;;2.20;;
7719;SDS011;3902;49.474;8.616;2023-04-15T01:08:32;3.57;;;2.13;;
7719;SDS011;3902;49.474;8.616;2023-04-15T01:10:58;2.90;;;2.27;;
7719;SDS011;3902;49.474;8.616;2023-04-15T01:13:27;2.30;;;2.10;;
7719;SDS011;3902;49.474;8.616;2023-04-15T01:15:53;2.43;;;2.23;;
7719;SDS011;3902;49.474;8.616;2023-04-15T01:18:21;4.37;;;2.37;;
7719;SDS011;3902;49.474;8.616;2023-04-15T01:20:47;5.17;;;2.60;;
7719;SDS011;3902;49.474;8.616;2023-04-15T01:23:12;3.70;;;2.80;;
7719;SDS011;3902;49.474;8.616;2023-04-15T01:25:38;4.60;;;2.50;;
7719;SDS011;3902;49.474;8.616;2023-04-15T01:28:05;3.50;;;2.27;;
7719;SDS011;3902;49.474;8.616;2023-04-15T01:30:33;3.40;;;2.60;;
7719;SDS011;3902;49.474;8.616;2023-04-15T01:32:59;3.77;;;2.77;;
7719;SDS011;3902;49.474;8.616;2023-04-15T01:35:25;2.47;;;2.10;;
7719;SDS011;3902;49.474;8.616;2023-04-15T01:37:51;3.47;;;2.37;;
7719;SDS011;3902;49.474;8.616;2023-04-15T01:40:18;2.50;;;2.00;;
7719;SDS011;3902;49.474;8.616;2023-04-15T01:42:44;3.87;;;2.30;;
7719;SDS011;3902;49.474;8.616;2023-04-15T01:45:10;2.53;;;2.30;;
7719;SDS011;3902;49.474;8.616;2023-04-15T01:47:38;4.70;;;2.53;;
7719;SDS011;3902;49.474;8.616;2023-04-15T01:50:03;3.70;;;2.50;;
7719;SDS011;3902;49.474;8.616;2023-04-15T01:52:29;3.13;;;2.30;;
7719;SDS011;3902;49.474;8.616;2023-04-15T01:54:56;4.40;;;2.50;;
7719;SDS011;3902;49.474;8.616;2023-04-15T01:57:21;2.67;;;2.37;;
7719;SDS011;3902;49.474;8.616;2023-04-15T01:59:47;2.83;;;2.40;;
7719;SDS011;3902;49.474;8.616;2023-04-15T02:02:12;2.83;;;2.40;;
7719;SDS011;3902;49.474;8.616;2023-04-15T02:04:38;3.27;;;2.60;;
7719;SDS011;3902;49.474;8.616;2023-04-15T02:07:03;5.20;;;2.70;;
7719;SDS011;3902;49.474;8.616;2023-04-15T02:09:29;4.50;;;2.87;;
7719;SDS011;3902;49.474;8.616;2023-04-15T02:11:55;3.23;;;2.70;;
7719;SDS011;3902;49.474;8.616;2023-04-15T02:14:20;3.70;;;2.80;;
7719;SDS011;3902;49.474;8.616;2023-04-15T02:16:46;2.73;;;2.13;;
7719;SDS011;3902;49.474;8.616;2023-04-15T02:19:12;3.70;;;2.60;;
7719;SDS011;3902;49.474;8.616;2023-04-15T02:21:37;2.70;;;2.17;;
7719;SDS011;3902;49.474;8.616;2023-04-15T02:24:03;3.40;;;2.33;;
7719;SDS011;3902;49.474;8.616;2023-04-15T02:26:29;5.50;;;2.87;;
7719;SDS011;3902;49.474;8.616;2023-04-15T02:28:56;3.70;;;2.60;;
7719;SDS011;3902;49.474;8.616;2023-04-15T02:31:22;3.33;;;2.57;;
7719;SDS011;3902;49.474;8.616;2023-04-15T02:33:48;2.57;;;2.33;;
7719;SDS011;3902;49.474;8.616;2023-04-15T02:36:14;3.07;;;2.20;;
7719;SDS011;3902;49.474;8.616;2023-04-15T02:38:40;3.67;;;2.30;;
7719;SDS011;3902;49.474;8.616;2023-04-15T02:41:07;3.00;;;2.73;;
7719;SDS011;3902;49.474;8.616;2023-04-15T02:43:34;4.03;;;2.60;;
7719;SDS011;3902;49.474;8.616;2023-04-15T02:45:59;3.07;;;2.30;;
7719;SDS011;3902;49.474;8.616;2023-04-15T02:48:25;3.83;;;3.00;;
7719;SDS011;3902;49.474;8.616;2023-04-15T02:50:50;3.30;;;2.70;;
7719;SDS011;3902;49.474;8.616;2023-04-15T02:53:16;3.13;;;2.70;;
7719;SDS011;3902;49.474;8.616;2023-04-15T02:55:42;3.13;;;2.03;;
7719;SDS011;3902;49.474;8.616;2023-04-15T02:58:07;2.73;;;2.40;;
7719;SDS011;3902;49.474;8.616;2023-04-15T03:00:33;3.13;;;2.67;;
7719;SDS011;3902;49.474;8.616;2023-04-15T03:03:00;2.40;;;2.00;;
7719;SDS011;3902;49.474;8.616;2023-04-15T03:05:28;3.03;;;2.17;;
7719;SDS011;3902;49.474;8.616;2023-04-15T03:07:53;3.23;;;2.50;;
7719;SDS011;3902;49.474;8.616;2023-04-15T03:10:19;4.23;;;2.30;;
7719;SDS011;3902;49.474;8.616;2023-04-15T03:12:45;3.40;;;2.33;;
7719;SDS011;3902;49.474;8.616;2023-04-15T03:15:11;3.40;;;2.47;;
7719;SDS011;3902;49.474;8.616;2023-04-15T03:17:37;2.70;;;2.10;;
7719;SDS011;3902;49.474;8.616;2023-04-15T03:20:03;2.93;;;2.30;;
7719;SDS011;3902;49.474;8.616;2023-04-15T03:22:32;3.27;;;2.33;;
7719;SDS011;3902;49.474;8.616;2023-04-15T03:24:58;2.80;;;2.50;;
7719;SDS011;3902;49.474;8.616;2023-04-15T03:27:24;2.33;;;1.83;;
7719;SDS011;3902;49.474;8.616;2023-04-15T03:29:49;3.07;;;2.10;;
7719;SDS011;3902;49.474;8.616;2023-04-15T03:32:16;2.40;;;2.07;;
7719;SDS011;3902;49.474;8.616;2023-04-15T03:34:41;2.90;;;2.27;;
7719;SDS011;3902;49.474;8.616;2023-04-15T03:37:07;2.27;;;2.07;;
7719;SDS011;3902;49.474;8.616;2023-04-15T03:39:33;2.37;;;1.83;;
7719;SDS011;3902;49.474;8.616;2023-04-15T03:41:59;3.87;;;2.03;;
7719;SDS011;3902;49.474;8.616;2023-04-15T03:44:26;2.20;;;1.93;;
7719;SDS011;3902;49.474;8.616;2023-04-15T03:46:51;1.90;;;1.80;;
7719;SDS011;3902;49.474;8.616;2023-04-15T03:49:17;2.40;;;2.13;;
7719;SDS011;3902;49.474;8.616;2023-04-15T03:51:43;3.27;;;2.17;;
7719;SDS011;3902;49.474;8.616;2023-04-15T03:54:09;5.33;;;2.13;;
7719;SDS011;3902;49.474;8.616;2023-04-15T03:56:35;2.00;;;1.90;;
7719;SDS011;3902;49.474;8.616;2023-04-15T03:59:01;2.17;;;2.00;;
7719;SDS011;3902;49.474;8.616;2023-04-15T04:01:26;3.80;;;2.50;;
7719;SDS011;3902;49.474;8.616;2023-04-15T04:03:52;3.60;;;2.60;;
7719;SDS011;3902;49.474;8.616;2023-04-15T04:06:17;3.33;;;2.50;;
7719;SDS011;3902;49.474;8.616;2023-04-15T04:08:43;3.63;;;2.67;;
7719;SDS011;3902;49.474;8.616;2023-04-15T04:11:09;2.40;;;2.20;;
7719;SDS011;3902;49.474;8.616;2023-04-15T04:13:34;2.93;;;2.50;;
7719;SDS011;3902;49.474;8.616;2023-04-15T04:16:00;3.50;;;2.57;;
7719;SDS011;3902;49.474;8.616;2023-04-15T04:18:26;3.70;;;2.33;;
7719;SDS011;3902;49.474;8.616;2023-04-15T04:20:52;3.60;;;2.57;;
7719;SDS011;3902;49.474;8.616;2023-04-15T04:23:17;3.23;;;2.63;;
7719;SDS011;3902;49.474;8.616;2023-04-15T04:25:43;2.70;;;2.50;;
7719;SDS011;3902;49.474;8.616;2023-04-15T04:28:08;3.60;;;2.43;;
7719;SDS011;3902;49.474;8.616;2023-04-15T04:30:34;3.10;;;2.63;;
7719;SDS011;3902;49.474;8.616;2023-04-15T04:32:59;2.97;;;2.40;;
7719;SDS011;3902;49.474;8.616;2023-04-15T04:35:25;2.90;;;2.53;;
7719;SDS011;3902;49.474;8.616;2023-04-15T04:37:51;4.97;;;3.00;;
7719;SDS011;3902;49.474;8.616;2023-04-15T04:40:17;4.37;;;2.50;;
7719;SDS011;3902;49.474;8.616;2023-04-15T04:42:43;3.07;;;2.47;;
7719;SDS011;3902;49.474;8.616;2023-04-15T04:45:08;2.60;;;2.37;;
7719;SDS011;3902;49.474;8.616;2023-04-15T04:47:34;5.63;;;3.27;;
7719;SDS011;3902;49.474;8.616;2023-04-15T04:50:00;2.80;;;2.47;;
7719;SDS011;3902;49.474;8.616;2023-04-15T04:52:25;3.57;;;2.47;;
7719;SDS011;3902;49.474;8.616;2023-04-15T04:54:51;3.40;;;2.83;;
7719;SDS011;3902;49.474;8.616;2023-04-15T04:57:16;3.73;;;3.33;;
7719;SDS011;3902;49.474;8.616;2023-04-15T04:59:42;3.30;;;2.53;;
7719;SDS011;3902;49.474;8.616;2023-04-15T05:02:07;3.33;;;3.03;;
7719;SDS011;3902;49.474;8.616;2023-04-15T05:04:33;4.93;;;3.20;;
7719;SDS011;3902;49.474;8.616;2023-04-15T05:06:59;4.33;;;2.87;;
7719;SDS011;3902;49.474;8.616;2023-04-15T05:09:24;2.93;;;2.67;;
7719;SDS011;3902;49.474;8.616;2023-04-15T05:11:50;3.13;;;2.70;;
7719;SDS011;3902;49.474;8.616;2023-04-15T05:14:15;6.50;;;2.87;;
7719;SDS011;3902;49.474;8.616;2023-04-15T05:16:41;3.07;;;2.70;;
7719;SDS011;3902;49.474;8.616;2023-04-15T05:19:06;3.10;;;2.80;;
7719;SDS011;3902;49.474;8.616;2023-04-15T05:21:32;4.07;;;3.07;;
7719;SDS011;3902;49.474;8.616;2023-04-15T05:23:57;4.47;;;2.90;;
7719;SDS011;3902;49.474;8.616;2023-04-15T05:26:23;3.70;;;3.03;;
7719;SDS011;3902;49.474;8.616;2023-04-15T05:28:49;3.30;;;3.00;;
7719;SDS011;3902;49.474;8.616;2023-04-15T05:31:14;6.20;;;2.97;;
7719;SDS011;3902;49.474;8.616;2023-04-15T05:33:40;3.17;;;2.60;;
7719;SDS011;3902;49.474;8.616;2023-04-15T05:36:06;3.07;;;2.80;;
7719;SDS011;3902;49.474;8.616;2023-04-15T05:38:32;4.40;;;3.10;;
7719;SDS011;3902;49.474;8.616;2023-04-15T05:40:57;4.03;;;3.23;;
7719;SDS011;3902;49.474;8.616;2023-04-15T05:43:23;3.43;;;2.80;;
7719;SDS011;3902;49.474;8.616;2023-04-15T05:45:48;4.77;;;3.47;;
7719;SDS011;3902;49.474;8.616;2023-04-15T05:48:14;3.37;;;3.07;;
7719;SDS011;3902;49.474;8.616;2023-04-15T05:50:40;3.50;;;3.20;;
7719;SDS011;3902;49.474;8.616;2023-04-15T05:53:06;4.93;;;3.50;;
7719;SDS011;3902;49.474;8.616;2023-04-15T05:55:32;4.13;;;3.37;;
7719;SDS011;3902;49.474;8.616;2023-04-15T05:57:58;4.37;;;2.63;;
7719;SDS011;3902;49.474;8.616;2023-04-15T06:00:23;4.17;;;3.30;;
7719;SDS011;3902;49.474;8.616;2023-04-15T06:02:49;3.80;;;3.17;;
7719;SDS011;3902;49.474;8.616;2023-04-15T06:05:15;4.10;;;3.07;;
7719;SDS011;3902;49.474;8.616;2023-04-15T06:07:41;6.70;;;3.53;;
7719;SDS011;3902;49.474;8.616;2023-04-15T06:10:07;4.43;;;2.87;;
7719;SDS011;3902;49.474;8.616;2023-04-15T06:12:33;5.33;;;2.97;;
7719;SDS011;3902;49.474;8.616;2023-04-15T06:14:59;4.93;;;3.03;;
7719;SDS011;3902;49.474;8.616;2023-04-15T06:17:25;3.13;;;2.83;;
7719;SDS011;3902;49.474;8.616;2023-04-15T06:19:50;5.23;;;4.27;;
7719;SDS011;3902;49.474;8.616;2023-04-15T06:22:20;3.27;;;2.97;;
7719;SDS011;3902;49.474;8.616;2023-04-15T06:24:47;4.87;;;3.83;;
7719;SDS011;3902;49.474;8.616;2023-04-15T06:27:14;3.57;;;3.27;;
7719;SDS011;3902;49.474;8.616;2023-04-15T06:29:40;3.23;;;2.90;;
7719;SDS011;3902;49.474;8.616;2023-04-15T06:32:05;4.07;;;3.17;;
7719;SDS011;3902;49.474;8.616;2023-04-15T06:34:31;4.50;;;3.20;;
7719;SDS011;3902;49.474;8.616;2023-04-15T06:36:57;4.83;;;3.00;;
7719;SDS011;3902;49.474;8.616;2023-04-15T06:39:23;3.40;;;3.10;;
7719;SDS011;3902;49.474;8.616;2023-04-15T06:41:48;3.53;;;3.23;;
7719;SDS011;3902;49.474;8.616;2023-04-15T06:44:14;3.57;;;3.10;;
7719;SDS011;3902;49.474;8.616;2023-04-15T06:46:40;3.07;;;2.77;;
7719;SDS011;3902;49.474;8.616;2023-04-15T06:49:05;4.63;;;2.90;;
7719;SDS011;3902;49.474;8.616;2023-04-15T06:51:33;3.13;;;2.83;;
7719;SDS011;3902;49.474;8.616;2023-04-15T06:54:00;2.97;;;2.67;;
7719;SDS011;3902;49.474;8.616;2023-04-15T06:56:26;4.00;;;3.13;;
7719;SDS011;3902;49.474;8.616;2023-04-15T06:58:52;3.83;;;3.03;;
7719;SDS011;3902;49.474;8.616;2023-04-15T07:01:17;3.83;;;2.60;;
7719;SDS011;3902;49.474;8.616;2023-04-15T07:03:43;3.80;;;2.63;;
7719;SDS011;3902;49.474;8.616;2023-04-15T07:06:09;3.30;;;3.00;;
7719;SDS011;3902;49.474;8.616;2023-04-15T07:08:34;4.10;;;2.73;;
7719;SDS011;3902;49.474;8.616;2023-04-15T07:11:00;2.67;;;2.47;;
7719;SDS011;3902;49.474;8.616;2023-04-15T07:13:26;3.00;;;2.53;;
7719;SDS011;3902;49.474;8.616;2023-04-15T07:15:51;3.10;;;2.80;;
7719;SDS011;3902;49.474;8.616;2023-04-15T07:18:17;2.70;;;2.47;;
7719;SDS011;3902;49.474;8.616;2023-04-15T07:20:42;4.17;;;2.97;;
7719;SDS011;3902;49.474;8.616;2023-04-15T07:23:08;4.47;;;3.00;;
7719;SDS011;3902;49.474;8.616;2023-04-15T07:25:33;3.23;;;2.50;;
7719;SDS011;3902;49.474;8.616;2023-04-15T07:27:59;3.57;;;3.27;;
7719;SDS011;3902;49.474;8.616;2023-04-15T07:30:26;4.93;;;3.50;;
7719;SDS011;3902;49.474;8.616;2023-04-15T07:32:52;3.50;;;3.20;;
7719;SDS011;3902;49.474;8.616;2023-04-15T07:35:18;3.30;;;2.90;;
7719;SDS011;3902;49.474;8.616;2023-04-15T07:37:45;3.80;;;3.20;;
7719;SDS011;3902;49.474;8.616;2023-04-15T07:40:12;4.73;;;3.20;;
7719;SDS011;3902;49.474;8.616;2023-04-15T07:42:38;3.60;;;3.30;;
7719;SDS011;3902;49.474;8.616;2023-04-15T07:45:05;4.40;;;3.07;;
7719;SDS011;3902;49.474;8.616;2023-04-15T07:47:30;3.60;;;3.17;;
7719;SDS011;3902;49.474;8.616;2023-04-15T07:49:56;4.27;;;3.00;;
7719;SDS011;3902;49.474;8.616;2023-04-15T07:52:21;3.33;;;3.03;;
7719;SDS011;3902;49.474;8.616;2023-04-15T07:54:47;3.20;;;2.90;;
7719;SDS011;3902;49.474;8.616;2023-04-15T07:57:13;5.77;;;3.67;;
7719;SDS011;3902;49.474;8.616;2023-04-15T07:59:38;3.77;;;3.07;;
7719;SDS011;3902;49.474;8.616;2023-04-15T08:02:04;4.67;;;3.97;;
7719;SDS011;3902;49.474;8.616;2023-04-15T08:04:30;4.07;;;3.67;;
7719;SDS011;3902;49.474;8.616;2023-04-15T08:06:56;4.63;;;3.23;;
7719;SDS011;3902;49.474;8.616;2023-04-15T08:09:21;4.03;;;3.20;;
7719;SDS011;3902;49.474;8.616;2023-04-15T08:11:47;3.57;;;3.27;;
7719;SDS011;3902;49.474;8.616;2023-04-15T08:14:14;5.10;;;3.20;;
7719;SDS011;3902;49.474;8.616;2023-04-15T08:16:40;3.93;;;3.53;;
7719;SDS011;3902;49.474;8.616;2023-04-15T08:19:06;3.37;;;3.07;;
7719;SDS011;3902;49.474;8.616;2023-04-15T08:21:31;3.33;;;2.77;;
7719;SDS011;3902;49.474;8.616;2023-04-15T08:23:57;3.50;;;2.90;;
7719;SDS011;3902;49.474;8.616;2023-04-15T08:26:24;4.00;;;3.57;;
7719;SDS011;3902;49.474;8.616;2023-04-15T08:28:49;3.00;;;2.80;;
7719;SDS011;3902;49.474;8.616;2023-04-15T08:31:15;6.20;;;3.80;;
7719;SDS011;3902;49.474;8.616;2023-04-15T08:33:43;4.53;;;3.00;;
7719;SDS011;3902;49.474;8.616;2023-04-15T08:36:08;3.03;;;2.70;;
7719;SDS011;3902;49.474;8.616;2023-04-15T08:38:34;3.20;;;2.93;;
7719;SDS011;3902;49.474;8.616;2023-04-15T08:41:03;4.73;;;3.47;;
7719;SDS011;3902;49.474;8.616;2023-04-15T08:43:55;2.80;;;2.50;;
7719;SDS011;3902;49.474;8.616;2023-04-15T08:46:22;3.83;;;3.20;;
7719;SDS011;3902;49.474;8.616;2023-04-15T08:48:48;4.00;;;3.27;;
7719;SDS011;3902;49.474;8.616;2023-04-15T08:51:15;3.80;;;3.30;;
7719;SDS011;3902;49.474;8.616;2023-04-15T08:53:44;4.43;;;3.50;;
7719;SDS011;3902;49.474;8.616;2023-04-15T08:56:11;5.83;;;3.60;;
7719;SDS011;3902;49.474;8.616;2023-04-15T08:58:39;3.47;;;3.07;;
7719;SDS011;3902;49.474;8.616;2023-04-15T09:01:05;4.57;;;3.43;;
7719;SDS011;3902;49.474;8.616;2023-04-15T09:03:31;3.90;;;2.90;;
7719;SDS011;3902;49.474;8.616;2023-04-15T09:05:58;3.20;;;2.93;;
7719;SDS011;3902;49.474;8.616;2023-04-15T09:08:23;4.23;;;3.00;;
7719;SDS011;3902;49.474;8.616;2023-04-15T09:10:49;3.63;;;2.77;;
7719;SDS011;3902;49.474;8.616;2023-04-15T09:13:15;3.63;;;2.87;;
7719;SDS011;3902;49.474;8.616;2023-04-15T09:15:40;3.20;;;2.90;;
7719;SDS011;3902;49.474;8.616;2023-04-15T09:18:06;3.33;;;2.60;;
7719;SDS011;3902;49.474;8.616;2023-04-15T09:20:39;3.63;;;2.47;;
7719;SDS011;3902;49.474;8.616;2023-04-15T09:23:11;3.20;;;2.67;;
7719;SDS011;3902;49.474;8.616;2023-04-15T09:25:38;3.10;;;2.50;;
7719;SDS011;3902;49.474;8.616;2023-04-15T09:28:06;3.57;;;2.67;;
7719;SDS011;3902;49.474;8.616;2023-04-15T09:30:32;3.60;;;2.50;;
7719;SDS011;3902;49.474;8.616;2023-04-15T09:32:59;4.10;;;3.03;;
7719;SDS011;3902;49.474;8.616;2023-04-15T09:35:26;3.97;;;2.87;;
7719;SDS011;3902;49.474;8.616;2023-04-15T09:37:52;3.67;;;2.70;;
7719;SDS011;3902;49.474;8.616;2023-04-15T09:40:32;3.20;;;2.77;;
7719;SDS011;3902;49.474;8.616;2023-04-15T09:43:05;3.77;;;2.80;;
7719;SDS011;3902;49.474;8.616;2023-04-15T09:45:32;2.97;;;2.70;;
7719;SDS011;3902;49.474;8.616;2023-04-15T09:47:59;3.60;;;2.90;;
7719;SDS011;3902;49.474;8.616;2023-04-15T09:50:45;3.97;;;3.33;;
7719;SDS011;3902;49.474;8.616;2023-04-15T09:53:16;4.10;;;3.40;;
7719;SDS011;3902;49.474;8.616;2023-04-15T09:55:49;3.30;;;2.50;;
7719;SDS011;3902;49.474;8.616;2023-04-15T09:58:19;3.47;;;3.17;;
7719;SDS011;3902;49.474;8.616;2023-04-15T10:00:46;3.80;;;3.40;;
7719;SDS011;3902;49.474;8.616;2023-04-15T10:03:13;4.50;;;3.50;;
7719;SDS011;3902;49.474;8.616;2023-04-15T10:05:55;3.83;;;3.53;;
7719;SDS011;3902;49.474;8.616;2023-04-15T10:08:26;3.40;;;2.90;;
7719;SDS011;3902;49.474;8.616;2023-04-15T10:10:53;4.27;;;3.73;;
7719;SDS011;3902;49.474;8.616;2023-04-15T10:13:21;5.27;;;3.90;;
7719;SDS011;3902;49.474;8.616;2023-04-15T10:15:49;6.87;;;3.50;;
7719;SDS011;3902;49.474;8.616;2023-04-15T10:18:18;4.10;;;3.70;;
7719;SDS011;3902;49.474;8.616;2023-04-15T10:20:45;4.50;;;4.07;;
7719;SDS011;3902;49.474;8.616;2023-04-15T10:23:12;4.13;;;3.70;;
7719;SDS011;3902;49.474;8.616;2023-04-15T10:25:39;4.40;;;4.00;;
7719;SDS011;3902;49.474;8.616;2023-04-15T10:28:05;4.23;;;3.80;;
7719;SDS011;3902;49.474;8.616;2023-04-15T10:30:32;6.47;;;4.50;;
7719;SDS011;3902;49.474;8.616;2023-04-15T10:32:58;4.50;;;4.07;;
7719;SDS011;3902;49.474;8.616;2023-04-15T10:35:27;4.20;;;3.60;;
7719;SDS011;3902;49.474;8.616;2023-04-15T10:37:54;3.30;;;3.00;;
7719;SDS011;3902;49.474;8.616;2023-04-15T10:42:53;3.53;;;3.23;;
7719;SDS011;3902;49.474;8.616;2023-04-15T10:45:20;5.67;;;3.60;;
7719;SDS011;3902;49.474;8.616;2023-04-15T10:47:50;3.50;;;3.20;;
7719;SDS011;3902;49.474;8.616;2023-04-15T10:50:17;4.90;;;3.80;;
7719;SDS011;3902;49.474;8.616;2023-04-15T10:52:43;3.20;;;2.80;;
7719;SDS011;3902;49.474;8.616;2023-04-15T10:55:12;3.73;;;2.73;;
7719;SDS011;3902;49.474;8.616;2023-04-15T10:57:42;3.40;;;2.80;;
7719;SDS011;3902;49.474;8.616;2023-04-15T11:00:09;3.03;;;2.33;;
7719;SDS011;3902;49.474;8.616;2023-04-15T11:05:06;2.40;;;2.13;;
7719;SDS011;3902;49.474;8.616;2023-04-15T11:07:33;3.90;;;2.30;;
7719;SDS011;3902;49.474;8.616;2023-04-15T11:12:38;2.67;;;1.70;;
7719;SDS011;3902;49.474;8.616;2023-04-15T11:17:54;2.77;;;2.07;;
7719;SDS011;3902;49.474;8.616;2023-04-15T11:20:21;2.30;;;1.60;;
7719;SDS011;3902;49.474;8.616;2023-04-15T11:22:50;2.90;;;1.70;;
7719;SDS011;3902;49.474;8.616;2023-04-15T11:25:23;2.37;;;2.07;;
7719;SDS011;3902;49.474;8.616;2023-04-15T11:27:50;1.47;;;1.37;;
7719;SDS011;3902;49.474;8.616;2023-04-15T11:30:17;2.67;;;1.83;;
7719;SDS011;3902;49.474;8.616;2023-04-15T11:32:54;2.90;;;1.70;;
7719;SDS011;3902;49.474;8.616;2023-04-15T11:35:22;3.00;;;1.93;;
7719;SDS011;3902;49.474;8.616;2023-04-15T11:37:49;3.43;;;1.80;;
7719;SDS011;3902;49.474;8.616;2023-04-15T11:40:15;3.10;;;1.50;;
7719;SDS011;3902;49.474;8.616;2023-04-15T11:42:46;2.00;;;1.77;;
7719;SDS011;3902;49.474;8.616;2023-04-15T11:45:12;2.10;;;1.90;;
7719;SDS011;3902;49.474;8.616;2023-04-15T11:47:39;1.70;;;1.60;;
7719;SDS011;3902;49.474;8.616;2023-04-15T11:50:18;2.30;;;1.60;;
7719;SDS011;3902;49.474;8.616;2023-04-15T11:52:59;3.57;;;2.10;;
7719;SDS011;3902;49.474;8.616;2023-04-15T11:55:29;2.80;;;1.80;;
7719;SDS011;3902;49.474;8.616;2023-04-15T12:00:52;1.90;;;1.70;;
7719;SDS011;3902;49.474;8.616;2023-04-15T12:09:19;1.73;;;1.50;;
7719;SDS011;3902;49.474;8.616;2023-04-15T12:11:42;2.00;;;1.70;;
7719;SDS011;3902;49.474;8.616;2023-04-15T12:14:19;3.57;;;1.93;;
7719;SDS011;3902;49.474;8.616;2023-04-15T12:16:50;1.77;;;1.67;;
7719;SDS011;3902;49.474;8.616;2023-04-15T12:19:24;2.20;;;1.80;;
7719;SDS011;3902;49.474;8.616;2023-04-15T12:22:00;1.90;;;1.63;;
7719;SDS011;3902;49.474;8.616;2023-04-15T12:24:31;1.70;;;1.50;;
7719;SDS011;3902;49.474;8.616;2023-04-15T12:27:07;5.00;;;2.30;;
7719;SDS011;3902;49.474;8.616;2023-04-15T12:29:37;5.60;;;2.00;;
7719;SDS011;3902;49.474;8.616;2023-04-15T12:32:08;2.60;;;1.80;;
7719;SDS011;3902;49.474;8.616;2023-04-15T12:34:38;2.63;;;2.10;;
7719;SDS011;3902;49.474;8.616;2023-04-15T12:37:10;2.47;;;1.70;;
7719;SDS011;3902;49.474;8.616;2023-04-15T12:39:36;2.93;;;1.80;;
7719;SDS011;3902;49.474;8.616;2023-04-15T12:42:04;2.10;;;1.63;;
7719;SDS011;3902;49.474;8.616;2023-04-15T12:44:30;2.80;;;1.83;;
7719;SDS011;3902;49.474;8.616;2023-04-15T12:46:57;2.73;;;2.00;;
7719;SDS011;3902;49.474;8.616;2023-04-15T12:49:23;3.13;;;1.93;;
7719;SDS011;3902;49.474;8.616;2023-04-15T12:51:50;2.17;;;1.60;;
7719;SDS011;3902;49.474;8.616;2023-04-15T12:54:18;3.43;;;1.33;;
7719;SDS011;3902;49.474;8.616;2023-04-15T12:56:45;3.63;;;2.00;;
7719;SDS011;3902;49.474;8.616;2023-04-15T12:59:12;2.33;;;1.83;;
7719;SDS011;3902;49.474;8.616;2023-04-15T13:01:38;2.77;;;1.87;;
7719;SDS011;3902;49.474;8.616;2023-04-15T13:04:04;1.50;;;1.40;;
7719;SDS011;3902;49.474;8.616;2023-04-15T13:06:30;1.70;;;1.40;;
7719;SDS011;3902;49.474;8.616;2023-04-15T13:08:57;1.60;;;1.30;;
7719;SDS011;3902;49.474;8.616;2023-04-15T13:11:24;1.30;;;1.00;;
7719;SDS011;3902;49.474;8.616;2023-04-15T13:13:50;3.37;;;1.50;;
7719;SDS011;3902;49.474;8.616;2023-04-15T13:16:16;1.40;;;1.20;;
7719;SDS011;3902;49.474;8.616;2023-04-15T13:18:42;2.87;;;1.40;;
7719;SDS011;3902;49.474;8.616;2023-04-15T13:21:09;1.90;;;1.57;;
7719;SDS011;3902;49.474;8.616;2023-04-15T13:23:35;2.00;;;1.40;;
7719;SDS011;3902;49.474;8.616;2023-04-15T13:26:01;6.07;;;2.00;;
7719;SDS011;3902;49.474;8.616;2023-04-15T13:28:26;2.63;;;1.70;;
7719;SDS011;3902;49.474;8.616;2023-04-15T13:30:52;2.13;;;1.70;;
7719;SDS011;3902;49.474;8.616;2023-04-15T13:33:17;2.83;;;1.60;;
7719;SDS011;3902;49.474;8.616;2023-04-15T13:35:43;1.97;;;1.60;;
7719;SDS011;3902;49.474;8.616;2023-04-15T13:38:08;2.47;;;1.50;;
7719;SDS011;3902;49.474;8.616;2023-04-15T13:40:34;2.63;;;1.63;;
7719;SDS011;3902;49.474;8.616;2023-04-15T13:42:59;3.60;;;1.60;;
7719;SDS011;3902;49.474;8.616;2023-04-15T13:45:26;2.90;;;1.50;;
7719;SDS011;3902;49.474;8.616;2023-04-15T13:47:51;1.50;;;1.40;;
7719;SDS011;3902;49.474;8.616;2023-04-15T13:50:17;1.50;;;1.40;;
7719;SDS011;3902;49.474;8.616;2023-04-15T13:52:43;2.13;;;1.43;;
7719;SDS011;3902;49.474;8.616;2023-04-15T13:55:08;1.53;;;1.30;;
7719;SDS011;3902;49.474;8.616;2023-04-15T13:57:34;2.17;;;1.63;;
7719;SDS011;3902;49.474;8.616;2023-04-15T14:00:00;2.80;;;1.50;;
7719;SDS011;3902;49.474;8.616;2023-04-15T14:02:27;2.07;;;1.40;;
7719;SDS011;3902;49.474;8.616;2023-04-15T14:04:52;2.17;;;1.13;;
7719;SDS011;3902;49.474;8.616;2023-04-15T14:07:18;1.40;;;1.30;;
7719;SDS011;3902;49.474;8.616;2023-04-15T14:09:43;4.00;;;1.50;;
7719;SDS011;3902;49.474;8.616;2023-04-15T14:12:09;1.90;;;1.40;;
7719;SDS011;3902;49.474;8.616;2023-04-15T14:14:35;1.80;;;1.30;;
7719;SDS011;3902;49.474;8.616;2023-04-15T14:17:01;1.63;;;1.30;;
7719;SDS011;3902;49.474;8.616;2023-04-15T14:19:29;2.90;;;1.50;;
7719;SDS011;3902;49.474;8.616;2023-04-15T14:21:54;2.53;;;1.40;;
7719;SDS011;3902;49.474;8.616;2023-04-15T14:24:20;1.93;;;1.20;;
7719;SDS011;3902;49.474;8.616;2023-04-15T14:26:45;1.50;;;1.40;;
7719;SDS011;3902;49.474;8.616;2023-04-15T14:29:11;1.50;;;1.40;;
7719;SDS011;3902;49.474;8.616;2023-04-15T14:31:37;3.80;;;1.43;;
7719;SDS011;3902;49.474;8.616;2023-04-15T14:34:03;1.90;;;1.50;;
7719;SDS011;3902;49.474;8.616;2023-04-15T14:36:28;1.60;;;1.50;;
7719;SDS011;3902;49.474;8.616;2023-04-15T14:38:54;1.50;;;1.40;;
7719;SDS011;3902;49.474;8.616;2023-04-15T14:41:19;1.63;;;1.40;;
7719;SDS011;3902;49.474;8.616;2023-04-15T14:43:46;1.57;;;1.47;;
7719;SDS011;3902;49.474;8.616;2023-04-15T14:46:11;2.60;;;1.60;;
7719;SDS011;3902;49.474;8.616;2023-04-15T14:48:38;1.60;;;1.50;;
7719;SDS011;3902;49.474;8.616;2023-04-15T14:51:04;1.50;;;1.30;;
7719;SDS011;3902;49.474;8.616;2023-04-15T14:53:29;3.53;;;1.53;;
7719;SDS011;3902;49.474;8.616;2023-04-15T14:55:55;1.50;;;1.40;;
7719;SDS011;3902;49.474;8.616;2023-04-15T14:58:20;1.70;;;1.53;;
7719;SDS011;3902;49.474;8.616;2023-04-15T15:00:46;1.50;;;1.40;;
7719;SDS011;3902;49.474;8.616;2023-04-15T15:03:12;2.07;;;1.70;;
7719;SDS011;3902;49.474;8.616;2023-04-15T15:05:38;1.93;;;1.70;;
7719;SDS011;3902;49.474;8.616;2023-04-15T15:08:09;2.07;;;1.63;;
7719;SDS011;3902;49.474;8.616;2023-04-15T15:10:35;1.50;;;1.40;;
7719;SDS011;3902;49.474;8.616;2023-04-15T15:13:05;1.33;;;1.23;;
7719;SDS011;3902;49.474;8.616;2023-04-15T15:15:31;1.33;;;1.23;;
7719;SDS011;3902;49.474;8.616;2023-04-15T15:17:57;1.60;;;1.50;;
7719;SDS011;3902;49.474;8.616;2023-04-15T15:20:23;1.50;;;1.40;;
7719;SDS011;3902;49.474;8.616;2023-04-15T15:22:49;2.27;;;1.77;;
7719;SDS011;3902;49.474;8.616;2023-04-15T15:25:15;1.83;;;1.63;;
7719;SDS011;3902;49.474;8.616;2023-04-15T15:27:41;1.90;;;1.80;;
7719;SDS011;3902;49.474;8.616;2023-04-15T15:30:06;1.50;;;1.40;;